createdAt,value
2023-01-08T00:01:17.280Z,123.07
2023-01-08T00:03:49.998Z,111.30
2023-01-08T00:06:19.242Z,60.28
2023-01-08T00:08:46.237Z,84.28
2023-01-08T00:11:14.015Z,65.82
2023-01-08T00:13:41.207Z,65.60
2023-01-08T00:16:14.317Z,74.38
2023-01-08T00:18:41.594Z,68.25
2023-01-08T00:21:09.104Z,65.80
2023-01-08T00:23:36.640Z,55.63
2023-01-08T00:26:09.081Z,57.83
2023-01-08T00:28:37.094Z,69.07
2023-01-08T00:31:05.711Z,59.33
2023-01-08T00:33:33.136Z,61.53
2023-01-08T00:36:01.019Z,60.58
2023-01-08T00:38:29.317Z,62.05
2023-01-08T00:40:56.426Z,63.55
2023-01-08T00:43:23.377Z,58.53
2023-01-08T00:45:53.797Z,54.80
2023-01-08T00:48:22.571Z,58.03
2023-01-08T00:50:50.203Z,60.42
2023-01-08T00:53:18.354Z,64.32
2023-01-08T00:55:45.750Z,59.83
2023-01-08T00:58:13.358Z,57.90
2023-01-08T01:00:40.558Z,54.65
2023-01-08T01:03:07.633Z,58.70
2023-01-08T01:05:35.597Z,56.50
2023-01-08T01:08:02.543Z,55.58
2023-01-08T01:10:29.777Z,51.95
2023-01-08T01:12:56.625Z,56.42
2023-01-08T01:15:24.450Z,54.97
2023-01-08T01:17:51.313Z,59.85
2023-01-08T01:20:18.473Z,54.17
2023-01-08T01:22:45.526Z,57.45
2023-01-08T01:25:12.806Z,55.28
2023-01-08T01:27:39.692Z,57.05
2023-01-08T01:30:07.753Z,56.00
2023-01-08T01:32:35.027Z,55.20
2023-01-08T01:35:03.131Z,59.20
2023-01-08T01:37:30.047Z,56.80
2023-01-08T01:39:58.142Z,55.65
2023-01-08T01:42:40.121Z,57.85
2023-01-08T01:45:31.389Z,56.38
2023-01-08T01:48:09.663Z,57.55
2023-01-08T01:50:42.385Z,52.50
2023-01-08T01:53:19.345Z,56.28
2023-01-08T01:55:47.932Z,58.55
2023-01-08T01:58:20.630Z,57.75
2023-01-08T02:00:48.520Z,58.25
2023-01-08T02:03:15.877Z,57.03
2023-01-08T02:06:15.701Z,56.20
2023-01-08T02:09:11.336Z,51.60
2023-01-08T02:11:44.549Z,53.08
2023-01-08T02:14:30.689Z,50.38
2023-01-08T02:17:04.311Z,47.28
2023-01-08T02:19:51.371Z,50.45
2023-01-08T02:22:30.666Z,52.85
2023-01-08T02:25:16.224Z,46.88
2023-01-08T02:27:47.930Z,51.20
2023-01-08T02:30:15.460Z,56.30
2023-01-08T02:32:43.234Z,51.20
2023-01-08T02:35:10.948Z,54.40
2023-01-08T02:37:39.136Z,56.35
2023-01-08T02:40:12.242Z,49.53
2023-01-08T02:42:55.750Z,48.67
2023-01-08T02:45:57.308Z,47.22
2023-01-08T02:48:27.160Z,50.85
2023-01-08T02:50:59.495Z,47.92
2023-01-08T02:53:30.572Z,52.25
2023-01-08T02:56:01.546Z,54.80
2023-01-08T02:58:32.828Z,48.63
2023-01-08T03:01:03.035Z,47.97
2023-01-08T03:03:31.712Z,49.80
2023-01-08T03:06:05.755Z,42.92
2023-01-08T03:08:40.304Z,49.05
2023-01-08T03:11:10.171Z,43.92
2023-01-08T03:14:10.636Z,45.33
2023-01-08T03:17:17.410Z,47.17
2023-01-08T03:19:49.946Z,40.58
2023-01-08T03:22:18.259Z,40.55
2023-01-08T03:24:50.980Z,46.85
2023-01-08T03:27:21.977Z,43.83
2023-01-08T03:29:52.348Z,43.83
2023-01-08T03:32:21.992Z,42.72
2023-01-08T03:34:50.845Z,45.38
2023-01-08T03:37:24.941Z,44.85
2023-01-08T03:40:08.679Z,41.85
2023-01-08T03:42:35.930Z,40.30
2023-01-08T03:45:04.155Z,43.10
2023-01-08T03:47:33.206Z,45.10
2023-01-08T03:50:03.163Z,47.22
2023-01-08T03:52:31.834Z,44.05
2023-01-08T03:54:59.319Z,43.20
2023-01-08T03:57:26.462Z,49.92
2023-01-08T03:59:53.623Z,46.80
2023-01-08T04:02:20.603Z,48.67
2023-01-08T04:04:48.186Z,41.33
2023-01-08T04:07:15.231Z,38.05
2023-01-08T04:09:42.355Z,45.55
2023-01-08T04:12:09.229Z,45.28
2023-01-08T04:14:36.321Z,39.05
2023-01-08T04:17:03.225Z,43.30
2023-01-08T04:19:30.405Z,42.13
2023-01-08T04:21:57.178Z,48.28
2023-01-08T04:24:24.242Z,44.63
2023-01-08T04:26:51.148Z,43.85
2023-01-08T04:29:18.348Z,46.90
2023-01-08T04:31:45.201Z,50.95
2023-01-08T04:34:12.357Z,45.72
2023-01-08T04:36:39.449Z,46.30
2023-01-08T04:39:08.403Z,50.15
2023-01-08T04:41:35.339Z,54.83
2023-01-08T04:44:03.110Z,54.47
2023-01-08T04:46:30.013Z,54.25
2023-01-08T04:48:57.341Z,58.53
2023-01-08T04:51:25.896Z,61.55
2023-01-08T04:53:53.205Z,53.83
2023-01-08T04:56:20.405Z,66.40
2023-01-08T04:58:47.568Z,64.28
2023-01-08T05:01:20.298Z,67.63
2023-01-08T05:03:47.640Z,64.40
2023-01-08T05:06:14.617Z,67.50
2023-01-08T05:08:41.783Z,55.60
2023-01-08T05:11:08.633Z,53.03
2023-01-08T05:13:35.794Z,61.65
2023-01-08T05:16:02.764Z,51.15
2023-01-08T05:18:30.792Z,60.40
2023-01-08T05:21:08.066Z,60.03
2023-01-08T05:23:35.187Z,58.85
2023-01-08T05:26:04.348Z,59.33
2023-01-08T05:28:31.852Z,58.53
2023-01-08T05:30:59.095Z,59.13
2023-01-08T05:33:26.391Z,54.95
2023-01-08T05:35:53.341Z,62.45
2023-01-08T05:38:20.840Z,56.35
2023-01-08T05:40:47.747Z,77.50
2023-01-08T05:43:14.880Z,75.50
2023-01-08T05:45:41.789Z,75.10
2023-01-08T05:48:08.983Z,67.25
2023-01-08T05:50:36.279Z,67.38
2023-01-08T05:53:07.550Z,61.22
2023-01-08T05:55:35.268Z,59.80
2023-01-08T05:58:04.997Z,60.85
2023-01-08T06:00:34.004Z,60.97
2023-01-08T06:03:01.296Z,48.58
2023-01-08T06:05:28.885Z,53.55
2023-01-08T06:07:56.195Z,56.20
2023-01-08T06:10:23.090Z,54.22
2023-01-08T06:12:50.282Z,49.28
2023-01-08T06:15:17.281Z,48.60
2023-01-08T06:17:44.645Z,49.63
2023-01-08T06:20:12.053Z,44.97
2023-01-08T06:22:39.143Z,62.20
2023-01-08T06:25:06.491Z,59.72
2023-01-08T06:27:33.630Z,65.22
2023-01-08T06:30:00.430Z,66.55
2023-01-08T06:32:27.556Z,56.80
2023-01-08T06:34:54.448Z,56.50
2023-01-08T06:37:21.896Z,54.42
2023-01-08T06:39:48.702Z,56.70
2023-01-08T06:42:15.888Z,64.28
2023-01-08T06:44:42.800Z,63.80
2023-01-08T06:47:10.066Z,62.58
2023-01-08T06:49:37.234Z,50.40
2023-01-08T06:52:04.540Z,61.28
2023-01-08T06:54:31.376Z,60.22
2023-01-08T06:56:58.583Z,55.58
2023-01-08T06:59:25.536Z,53.13
2023-01-08T07:01:52.772Z,51.83
2023-01-08T07:04:20.305Z,59.83
2023-01-08T07:06:47.869Z,53.55
2023-01-08T07:09:15.780Z,51.53
2023-01-08T07:11:43.399Z,49.38
2023-01-08T07:14:10.549Z,44.97
2023-01-08T07:16:37.899Z,44.97
2023-01-08T07:19:05.017Z,48.38
2023-01-08T07:21:32.161Z,45.05
2023-01-08T07:23:59.709Z,43.10
2023-01-08T07:26:27.872Z,48.10
2023-01-08T07:28:54.676Z,45.65
2023-01-08T07:31:21.937Z,46.63
2023-01-08T07:33:48.801Z,53.00
2023-01-08T07:36:16.469Z,48.22
2023-01-08T07:38:43.543Z,44.08
2023-01-08T07:41:10.845Z,44.97
2023-01-08T07:43:37.695Z,44.35
2023-01-08T07:46:05.428Z,48.65
2023-01-08T07:48:32.423Z,43.25
2023-01-08T07:51:04.248Z,40.88
2023-01-08T07:53:31.755Z,40.50
2023-01-08T07:56:06.168Z,42.88
2023-01-08T07:58:33.733Z,34.10
2023-01-08T08:01:00.724Z,36.55
2023-01-08T08:03:28.093Z,38.25
2023-01-08T08:05:54.984Z,36.88
2023-01-08T08:08:22.227Z,38.92
2023-01-08T08:10:49.109Z,40.63
2023-01-08T08:13:16.352Z,38.40
2023-01-08T08:15:43.446Z,37.40
2023-01-08T08:18:11.226Z,38.35
2023-01-08T08:20:38.566Z,40.15
2023-01-08T08:23:13.233Z,40.67
2023-01-08T08:25:41.626Z,44.75
2023-01-08T08:28:10.811Z,42.33
2023-01-08T08:30:40.569Z,40.72
2023-01-08T08:33:09.862Z,45.58
2023-01-08T08:35:37.448Z,42.83
2023-01-08T08:38:05.119Z,42.58
2023-01-08T08:40:32.160Z,41.75
2023-01-08T08:43:03.985Z,38.83
2023-01-08T08:45:31.100Z,41.00
2023-01-08T08:47:58.371Z,42.25
2023-01-08T08:50:25.442Z,44.25
2023-01-08T08:52:52.975Z,43.85
2023-01-08T08:55:20.498Z,51.45
2023-01-08T08:57:48.325Z,101.88
2023-01-08T09:00:16.035Z,44.42
2023-01-08T09:02:43.385Z,72.20
2023-01-08T09:05:11.469Z,47.22
2023-01-08T09:07:38.926Z,95.70
2023-01-08T09:10:06.330Z,62.65
2023-01-08T09:12:33.583Z,44.67
2023-01-08T09:15:00.582Z,182.73
2023-01-08T09:17:27.845Z,166.32
2023-01-08T09:19:54.948Z,198.05
2023-01-08T09:22:22.333Z,115.30
2023-01-08T09:24:49.551Z,52.97
2023-01-08T09:27:16.730Z,84.93
2023-01-08T09:29:43.713Z,86.68
2023-01-08T09:32:10.865Z,64.28
2023-01-08T09:34:38.313Z,65.00
2023-01-08T09:37:06.375Z,54.03
2023-01-08T09:39:33.987Z,45.42
2023-01-08T09:42:03.672Z,40.25
2023-01-08T09:44:37.444Z,40.25
2023-01-08T09:47:07.397Z,41.38
2023-01-08T09:49:42.195Z,45.50
2023-01-08T09:52:12.479Z,43.75
2023-01-08T09:54:40.961Z,50.97
2023-01-08T09:57:17.714Z,44.30
2023-01-08T09:59:48.039Z,40.17
2023-01-08T10:02:21.397Z,42.50
2023-01-08T10:04:57.412Z,43.97
2023-01-08T10:07:26.773Z,43.38
2023-01-08T10:09:55.377Z,41.55
2023-01-08T10:12:33.779Z,42.83
2023-01-08T10:15:05.843Z,53.67
2023-01-08T10:17:41.742Z,42.05
2023-01-08T10:20:21.604Z,49.28
2023-01-08T10:22:49.925Z,55.67
2023-01-08T10:25:20.671Z,41.70
2023-01-08T10:28:02.900Z,68.20
2023-01-08T10:30:37.830Z,52.92
2023-01-08T10:33:21.238Z,38.65
2023-01-08T10:35:58.092Z,82.50
2023-01-08T10:38:37.750Z,157.48
2023-01-08T10:41:12.518Z,47.03
2023-01-08T10:43:54.393Z,63.28
2023-01-08T10:46:44.010Z,99.28
2023-01-08T10:49:27.234Z,70.20
2023-01-08T10:51:55.680Z,56.83
2023-01-08T10:54:33.909Z,112.85
2023-01-08T10:57:02.561Z,62.33
2023-01-08T10:59:30.929Z,55.05
2023-01-08T11:01:58.571Z,51.95
2023-01-08T11:04:35.430Z,51.10
2023-01-08T11:07:05.573Z,49.28
2023-01-08T11:09:34.748Z,43.75
2023-01-08T11:12:02.066Z,44.85
2023-01-08T11:14:35.372Z,72.68
2023-01-08T11:17:10.098Z,47.25
2023-01-08T11:19:37.641Z,68.35
2023-01-08T11:22:25.257Z,52.35
2023-01-08T11:24:53.492Z,50.55
2023-01-08T11:27:32.075Z,51.33
2023-01-08T11:30:08.262Z,41.45
2023-01-08T11:33:19.146Z,38.28
2023-01-08T11:35:49.037Z,45.53
2023-01-08T11:38:17.048Z,38.72
2023-01-08T11:41:11.683Z,45.17
2023-01-08T11:43:50.634Z,47.80
2023-01-08T11:46:39.316Z,38.83
2023-01-08T11:49:47.746Z,57.30
2023-01-08T11:52:47.267Z,37.22
2023-01-08T11:55:26.359Z,34.22
2023-01-08T11:57:53.386Z,34.63
2023-01-08T12:00:44.228Z,47.65
2023-01-08T12:03:30.715Z,84.65
2023-01-08T12:06:09.711Z,86.75
2023-01-08T12:09:02.946Z,87.93
2023-01-08T12:12:08.038Z,74.88
2023-01-08T12:15:09.933Z,52.95
2023-01-08T12:17:38.030Z,53.38
2023-01-08T12:20:08.883Z,48.28
2023-01-08T12:23:08.422Z,38.97
2023-01-08T12:26:20.917Z,36.45
2023-01-08T12:29:11.667Z,54.47
2023-01-08T12:32:09.852Z,35.67
2023-01-08T12:35:13.238Z,36.35
2023-01-08T12:38:00.158Z,47.38
2023-01-08T12:40:34.258Z,40.03
2023-01-08T12:43:08.479Z,57.17
2023-01-08T12:45:41.087Z,44.83
2023-01-08T12:48:13.026Z,51.80
2023-01-08T12:50:58.307Z,51.58
2023-01-08T12:53:55.931Z,64.47
2023-01-08T12:56:39.215Z,40.78
2023-01-08T12:59:19.596Z,39.97
2023-01-08T13:02:13.691Z,50.17
2023-01-08T13:04:43.178Z,41.03
2023-01-08T13:07:36.105Z,41.10
2023-01-08T13:10:08.339Z,41.70
2023-01-08T13:12:41.053Z,43.58
2023-01-08T13:15:09.010Z,41.85
2023-01-08T13:17:38.043Z,38.55
2023-01-08T13:20:07.441Z,44.13
2023-01-08T13:22:37.040Z,44.92
2023-01-08T13:25:17.308Z,46.17
2023-01-08T13:27:46.063Z,48.65
2023-01-08T13:30:42.911Z,43.47
2023-01-08T13:36:13.350Z,43.78
2023-01-08T13:38:41.334Z,42.83
2023-01-08T13:41:29.998Z,44.55
2023-01-08T13:44:05.338Z,41.85
2023-01-08T13:46:38.843Z,42.35
2023-01-08T13:49:09.780Z,52.55
2023-01-08T13:51:42.010Z,44.47
2023-01-08T13:54:21.576Z,41.92
2023-01-08T13:56:54.243Z,42.75
2023-01-08T13:59:41.648Z,40.97
2023-01-08T14:02:50.171Z,43.45
2023-01-08T14:05:28.220Z,39.38
2023-01-08T14:07:56.256Z,45.25
2023-01-08T14:10:23.754Z,42.72
2023-01-08T14:12:51.665Z,42.70
2023-01-08T14:15:29.256Z,35.40
2023-01-08T14:17:57.835Z,36.58
2023-01-08T14:20:35.932Z,38.28
2023-01-08T14:23:09.000Z,37.35
2023-01-08T14:25:36.252Z,37.55
2023-01-08T14:28:05.778Z,39.47
2023-01-08T14:30:33.738Z,40.22
2023-01-08T14:33:02.006Z,44.50
2023-01-08T14:35:33.870Z,41.25
2023-01-08T14:38:03.498Z,54.42
2023-01-08T14:40:38.409Z,71.88
2023-01-08T14:43:14.160Z,74.53
2023-01-08T14:45:48.066Z,86.43
2023-01-08T14:48:15.534Z,108.20
2023-01-08T14:50:44.731Z,117.05
2023-01-08T14:53:21.301Z,118.15
2023-01-08T14:55:51.326Z,143.63
2023-01-08T14:58:23.485Z,144.65
2023-01-08T15:00:57.790Z,133.57
2023-01-08T15:03:37.813Z,126.63
2023-01-08T15:06:05.887Z,100.70
2023-01-08T15:08:37.423Z,117.40
2023-01-08T15:11:04.427Z,120.85
2023-01-08T15:13:38.213Z,118.63
2023-01-08T15:16:17.090Z,112.25
2023-01-08T15:18:57.324Z,109.95
2023-01-08T15:21:24.503Z,94.38
2023-01-08T15:23:55.932Z,103.07
2023-01-08T15:26:23.723Z,104.38
2023-01-08T15:29:00.608Z,109.05
2023-01-08T15:31:33.506Z,113.88
2023-01-08T15:34:01.366Z,99.60
2023-01-08T15:36:28.578Z,100.15
2023-01-08T15:38:56.049Z,108.13
2023-01-08T15:41:42.748Z,110.53
2023-01-08T15:44:13.074Z,115.80
2023-01-08T15:46:40.329Z,114.35
2023-01-08T15:49:07.994Z,112.70
2023-01-08T15:51:37.503Z,109.82
2023-01-08T15:54:05.259Z,116.05
2023-01-08T15:56:32.502Z,113.53
2023-01-08T15:58:59.899Z,123.00
2023-01-08T16:01:28.830Z,110.68
2023-01-08T16:03:56.438Z,118.82
2023-01-08T16:06:23.938Z,123.85
2023-01-08T16:08:51.763Z,119.65
2023-01-08T16:11:19.834Z,131.15
2023-01-08T16:13:47.143Z,124.05
2023-01-08T16:16:15.908Z,131.80
2023-01-08T16:18:43.509Z,181.93
2023-01-08T16:21:11.218Z,190.57
2023-01-08T16:23:40.212Z,183.85
2023-01-08T16:26:07.688Z,180.75
2023-01-08T16:28:35.629Z,172.82
2023-01-08T16:31:03.180Z,184.57
2023-01-08T16:33:30.667Z,181.02
2023-01-08T16:35:59.683Z,168.27
2023-01-08T16:38:27.301Z,162.75
2023-01-08T16:40:57.008Z,169.23
2023-01-08T16:43:25.689Z,169.48
2023-01-08T16:45:53.012Z,159.60
2023-01-08T16:48:21.215Z,154.20
2023-01-08T16:50:48.993Z,141.00
2023-01-08T16:53:17.891Z,159.35
2023-01-08T16:55:44.930Z,153.25
2023-01-08T16:58:12.282Z,140.43
2023-01-08T17:00:39.910Z,135.68
2023-01-08T17:03:07.589Z,145.07
2023-01-08T17:05:37.324Z,128.13
2023-01-08T17:08:05.076Z,134.45
2023-01-08T17:10:32.400Z,123.45
2023-01-08T17:12:59.799Z,298.30
2023-01-08T17:15:26.820Z,132.23
2023-01-08T17:17:54.001Z,125.65
2023-01-08T17:20:20.920Z,97.22
2023-01-08T17:22:48.035Z,98.55
2023-01-08T17:25:14.997Z,94.18
2023-01-08T17:27:42.846Z,115.30
2023-01-08T17:30:11.429Z,109.03
2023-01-08T17:32:38.991Z,104.82
2023-01-08T17:35:06.968Z,93.45
2023-01-08T17:37:36.224Z,99.38
2023-01-08T17:40:04.199Z,93.57
2023-01-08T17:42:31.593Z,108.65
2023-01-08T17:45:03.126Z,86.07
2023-01-08T17:47:31.106Z,98.78
2023-01-08T17:49:58.744Z,83.25
2023-01-08T17:52:26.508Z,90.00
2023-01-08T17:54:54.065Z,95.10
2023-01-08T17:57:22.141Z,89.05
2023-01-08T17:59:49.482Z,86.13
2023-01-08T18:02:17.925Z,84.43
2023-01-08T18:04:45.763Z,86.30
2023-01-08T18:07:13.317Z,100.38
2023-01-08T18:09:41.075Z,93.10
2023-01-08T18:12:08.946Z,87.97
2023-01-08T18:14:37.899Z,111.90
2023-01-08T18:17:06.567Z,101.18
2023-01-08T18:19:33.538Z,94.50
2023-01-08T18:22:01.138Z,85.15
2023-01-08T18:24:28.313Z,86.45
2023-01-08T18:26:55.530Z,84.45
2023-01-08T18:29:22.372Z,115.85
2023-01-08T18:31:49.665Z,88.65
2023-01-08T18:34:16.633Z,81.47
2023-01-08T18:36:43.789Z,87.45
2023-01-08T18:39:12.720Z,91.03
2023-01-08T18:41:58.340Z,86.65
2023-01-08T18:44:25.413Z,87.18
2023-01-08T18:46:52.816Z,89.82
2023-01-08T18:49:20.383Z,88.93
2023-01-08T18:51:47.623Z,95.95
2023-01-08T18:54:15.811Z,84.85
2023-01-08T18:56:43.259Z,87.43
2023-01-08T18:59:11.778Z,88.32
2023-01-08T19:01:39.613Z,93.60
2023-01-08T19:04:07.060Z,94.22
2023-01-08T19:06:35.447Z,96.70
2023-01-08T19:09:11.100Z,94.15
2023-01-08T19:11:39.075Z,95.15
2023-01-08T19:14:06.226Z,111.85
2023-01-08T19:16:33.704Z,90.60
2023-01-08T19:19:01.246Z,112.25
2023-01-08T19:21:28.800Z,107.10
2023-01-08T19:23:57.238Z,109.15
2023-01-08T19:26:24.949Z,95.82
2023-01-08T19:28:51.768Z,99.97
2023-01-08T19:31:19.099Z,97.60
2023-01-08T19:33:49.029Z,97.65
2023-01-08T19:36:18.696Z,88.93
2023-01-08T19:38:45.663Z,96.50
2023-01-08T19:41:32.218Z,90.53
2023-01-08T19:43:59.777Z,80.40
2023-01-08T19:46:27.703Z,86.20
2023-01-08T19:48:59.206Z,79.40
2023-01-08T19:51:27.580Z,82.60
2023-01-08T19:53:56.521Z,77.78
2023-01-08T19:56:23.861Z,78.38
2023-01-08T19:58:51.335Z,85.85
2023-01-08T20:01:22.141Z,77.38
2023-01-08T20:03:49.520Z,74.85
2023-01-08T20:06:20.122Z,84.32
2023-01-08T20:08:53.231Z,85.13
2023-01-08T20:11:22.619Z,88.80
2023-01-08T20:13:51.105Z,94.78
2023-01-08T20:16:20.619Z,94.03
2023-01-08T20:18:49.797Z,83.90
2023-01-08T20:21:23.249Z,78.10
2023-01-08T20:24:04.082Z,77.55
2023-01-08T20:26:32.480Z,79.45
2023-01-08T20:28:59.894Z,82.70
2023-01-08T20:31:34.382Z,82.70
2023-01-08T20:34:03.855Z,83.20
2023-01-08T20:36:33.806Z,79.70
2023-01-08T20:39:04.528Z,81.20
2023-01-08T20:41:33.135Z,92.93
2023-01-08T20:44:03.699Z,80.95
2023-01-08T20:46:31.206Z,85.72
2023-01-08T20:49:02.898Z,79.78
2023-01-08T20:51:33.967Z,86.95
2023-01-08T20:54:02.394Z,82.78
2023-01-08T20:56:29.737Z,83.82
2023-01-08T20:59:00.155Z,77.70
2023-01-08T21:01:31.363Z,86.63
2023-01-08T21:03:59.012Z,82.57
2023-01-08T21:06:29.184Z,85.85
2023-01-08T21:08:59.384Z,85.35
2023-01-08T21:11:27.595Z,86.78
2023-01-08T21:13:55.848Z,82.40
2023-01-08T21:16:26.184Z,84.40
2023-01-08T21:18:54.348Z,84.70
2023-01-08T21:21:24.868Z,79.65
2023-01-08T21:23:51.913Z,82.57
2023-01-08T21:26:19.377Z,82.93
2023-01-08T21:28:47.363Z,82.65
2023-01-08T21:31:21.191Z,84.82
2023-01-08T21:33:49.158Z,84.80
2023-01-08T21:36:21.894Z,86.18
2023-01-08T21:38:49.114Z,84.07
2023-01-08T21:41:38.270Z,97.95
2023-01-08T21:44:29.169Z,88.93
2023-01-08T21:46:59.169Z,91.10
2023-01-08T21:49:26.824Z,91.82
2023-01-08T21:52:13.219Z,75.95
2023-01-08T21:54:40.360Z,84.93
2023-01-08T21:57:08.360Z,81.65
2023-01-08T21:59:36.222Z,80.53
2023-01-08T22:02:04.480Z,76.35
2023-01-08T22:04:31.577Z,70.38
2023-01-08T22:06:59.175Z,70.80
2023-01-08T22:09:26.281Z,66.65
2023-01-08T22:11:55.272Z,74.03
2023-01-08T22:14:22.405Z,71.93
2023-01-08T22:16:50.120Z,71.03
2023-01-08T22:19:17.515Z,64.05
2023-01-08T22:21:45.696Z,65.53
2023-01-08T22:24:12.963Z,62.78
2023-01-08T22:26:40.770Z,61.70
2023-01-08T22:29:08.063Z,67.15
2023-01-08T22:31:35.644Z,60.33
2023-01-08T22:34:02.682Z,61.20
2023-01-08T22:36:30.151Z,69.93
2023-01-08T22:38:57.456Z,64.72
2023-01-08T22:41:25.267Z,70.65
2023-01-08T22:43:56.687Z,65.95
2023-01-08T22:46:25.241Z,59.90
2023-01-08T22:48:53.135Z,64.20
2023-01-08T22:51:27.675Z,64.60
2023-01-08T22:53:56.715Z,58.47
2023-01-08T22:56:24.101Z,67.55
2023-01-08T22:58:51.743Z,62.08
2023-01-08T23:01:28.199Z,61.15
2023-01-08T23:03:57.835Z,58.63
2023-01-08T23:06:27.829Z,60.97
2023-01-08T23:08:55.759Z,60.92
2023-01-08T23:11:24.157Z,63.08
2023-01-08T23:13:52.112Z,64.15
2023-01-08T23:16:23.577Z,65.80
2023-01-08T23:18:53.102Z,59.63
2023-01-08T23:21:22.582Z,58.63
2023-01-08T23:23:49.615Z,56.83
2023-01-08T23:26:26.180Z,63.35
2023-01-08T23:28:55.196Z,59.75
2023-01-08T23:31:25.879Z,52.70
2023-01-08T23:33:53.507Z,56.10
2023-01-08T23:36:21.589Z,57.28
2023-01-08T23:38:51.242Z,59.15
2023-01-08T23:41:20.899Z,62.33
2023-01-08T23:43:49.340Z,56.13
2023-01-08T23:46:17.367Z,61.17
2023-01-08T23:48:44.810Z,58.88
2023-01-08T23:51:12.008Z,60.45
2023-01-08T23:53:38.895Z,60.40
2023-01-08T23:56:06.453Z,66.75
2023-01-08T23:58:33.442Z,59.35
